DGR861 LGSR-LIRA
Flight info
| Callsign | DGR861 |
|---|---|
| Flight time | 1h 59m |
| Altitude | 38000 |
| Route | NETIS UM601 MIL UN134 KOR UL53 KRK UL995 TIGRA DCT EKTOL DCT ALAXI |
| Aircraft | B738/M-SDE2E3FGHIRWXY/LB1 |
Departure
| Time | 2026-04-30 18:28 |
|---|---|
| Airport | Santorini International Airport (LGSR) |
Arrival
| Time | 2026-04-30 20:27 |
|---|---|
| Airport | Ciampino–G. B. Pastine International Airport (LIRA) |
| Time | Latitude | Longitude | Altitude | Speed | Heading |
|---|---|---|---|---|---|
| 2026-04-30 18:24 | 36.39030 | 25.48165 | 52 ft | 4 kts | 157° |
| 2026-04-30 18:25 | 36.39007 | 25.48194 | 51 ft | 6 kts | 112° |
| 2026-04-30 18:25 | 36.39018 | 25.48262 | 51 ft | 0 kts | 68° |
| 2026-04-30 18:25 | 36.39018 | 25.48265 | 51 ft | 2 kts | 68° |
| 2026-04-30 18:26 | 36.39054 | 25.48311 | 53 ft | 7 kts | 15° |
| 2026-04-30 18:26 | 36.39085 | 25.48308 | 58 ft | 0 kts | 340° |
| 2026-04-30 18:27 | 36.39797 | 25.47970 | 68 ft | 124 kts | 339° |
| 2026-04-30 18:27 | 36.40747 | 25.47536 | 386 ft | 156 kts | 339° |
| 2026-04-30 18:28 | 36.42932 | 25.46723 | 1895 ft | 174 kts | 345° |
| 2026-04-30 18:28 | 36.43617 | 25.46542 | 2180 ft | 190 kts | 345° |
| 2026-04-30 18:28 | 36.45714 | 25.45969 | 2818 ft | 218 kts | 345° |
| 2026-04-30 18:29 | 36.47217 | 25.45546 | 3446 ft | 223 kts | 345° |
| 2026-04-30 18:29 | 36.52325 | 25.44801 | 4594 ft | 289 kts | 346° |
| 2026-04-30 18:30 | 36.54828 | 25.41664 | 7038 ft | 258 kts | 277° |
| 2026-04-30 18:30 | 36.54442 | 25.37518 | 9461 ft | 229 kts | 265° |
| 2026-04-30 18:31 | 36.54270 | 25.35551 | 10305 ft | 230 kts | 263° |
| 2026-04-30 18:31 | 36.53830 | 25.31577 | 11762 ft | 233 kts | 263° |
| 2026-04-30 18:32 | 36.53373 | 25.27538 | 13217 ft | 238 kts | 263° |
| 2026-04-30 18:32 | 36.53246 | 25.25479 | 13914 ft | 241 kts | 279° |
| 2026-04-30 18:32 | 36.54845 | 25.21598 | 14558 ft | 277 kts | 305° |
| 2026-04-30 18:33 | 36.56073 | 25.19616 | 14728 ft | 301 kts | 306° |
| 2026-04-30 18:33 | 36.58846 | 25.15206 | 15056 ft | 346 kts | 306° |
| 2026-04-30 18:33 | 36.60358 | 25.12765 | 15201 ft | 366 kts | 306° |
| 2026-04-30 18:34 | 36.61939 | 25.10190 | 15449 ft | 381 kts | 306° |
| 2026-04-30 18:34 | 36.65158 | 25.04908 | 16640 ft | 388 kts | 306° |
| 2026-04-30 18:34 | 36.66791 | 25.02218 | 17278 ft | 390 kts | 306° |
| 2026-04-30 18:35 | 36.68434 | 24.99508 | 17863 ft | 394 kts | 306° |
| 2026-04-30 18:35 | 36.69939 | 24.96648 | 18401 ft | 397 kts | 294° |
| 2026-04-30 18:35 | 36.70718 | 24.93348 | 18903 ft | 399 kts | 279° |
| 2026-04-30 18:36 | 36.71391 | 24.86449 | 19976 ft | 404 kts | 277° |
| 2026-04-30 18:36 | 36.71712 | 24.82958 | 20469 ft | 407 kts | 277° |
| 2026-04-30 18:36 | 36.72395 | 24.75906 | 21456 ft | 412 kts | 277° |
| 2026-04-30 18:37 | 36.72751 | 24.72348 | 21914 ft | 415 kts | 277° |
| 2026-04-30 18:37 | 36.73113 | 24.68763 | 22365 ft | 418 kts | 277° |
| 2026-04-30 18:37 | 36.73476 | 24.65159 | 22821 ft | 421 kts | 277° |
| 2026-04-30 18:37 | 36.73842 | 24.61526 | 23262 ft | 423 kts | 277° |
| 2026-04-30 18:38 | 36.74208 | 24.57875 | 23674 ft | 426 kts | 278° |
| 2026-04-30 18:38 | 36.74867 | 24.54279 | 24032 ft | 428 kts | 289° |
| 2026-04-30 18:38 | 36.76113 | 24.50903 | 24451 ft | 430 kts | 298° |
| 2026-04-30 18:38 | 36.77799 | 24.47805 | 24852 ft | 433 kts | 309° |
| 2026-04-30 18:39 | 36.79852 | 24.45043 | 25232 ft | 435 kts | 311° |
| 2026-04-30 18:39 | 36.81963 | 24.42322 | 25576 ft | 437 kts | 312° |
| 2026-04-30 18:39 | 36.84090 | 24.39599 | 25907 ft | 439 kts | 312° |
| 2026-04-30 18:39 | 36.86224 | 24.36857 | 26267 ft | 440 kts | 311° |
| 2026-04-30 18:40 | 36.88351 | 24.34104 | 26628 ft | 441 kts | 311° |
| 2026-04-30 18:40 | 36.90477 | 24.31333 | 26942 ft | 443 kts | 311° |
| 2026-04-30 18:40 | 36.92608 | 24.28541 | 27236 ft | 445 kts | 311° |
| 2026-04-30 18:40 | 36.94742 | 24.25735 | 27528 ft | 446 kts | 311° |
| 2026-04-30 18:41 | 36.96881 | 24.22916 | 27839 ft | 447 kts | 311° |
| 2026-04-30 18:41 | 36.99020 | 24.20094 | 28266 ft | 446 kts | 311° |
| 2026-04-30 18:41 | 37.01143 | 24.17291 | 28775 ft | 443 kts | 310° |
| 2026-04-30 18:41 | 37.03228 | 24.14536 | 29300 ft | 440 kts | 310° |
| 2026-04-30 18:42 | 37.05323 | 24.11766 | 29796 ft | 437 kts | 310° |
| 2026-04-30 18:42 | 37.09486 | 24.06253 | 30528 ft | 436 kts | 310° |
| 2026-04-30 18:42 | 37.11573 | 24.03483 | 30787 ft | 437 kts | 310° |
| 2026-04-30 18:45 | 37.32317 | 23.75846 | 33866 ft | 434 kts | 310° |
| 2026-04-30 18:45 | 37.34380 | 23.73085 | 34151 ft | 433 kts | 310° |
| 2026-04-30 18:45 | 37.36435 | 23.70332 | 34440 ft | 431 kts | 310° |
| 2026-04-30 18:46 | 37.38486 | 23.67583 | 34772 ft | 429 kts | 310° |
| 2026-04-30 18:46 | 37.40519 | 23.64856 | 35093 ft | 427 kts | 309° |
| 2026-04-30 18:46 | 37.42545 | 23.62134 | 35371 ft | 425 kts | 309° |
| 2026-04-30 18:46 | 37.44565 | 23.59419 | 35628 ft | 424 kts | 309° |
| 2026-04-30 18:47 | 37.46579 | 23.56709 | 35916 ft | 423 kts | 309° |
| 2026-04-30 18:47 | 37.48580 | 23.54014 | 36200 ft | 421 kts | 309° |
| 2026-04-30 18:47 | 37.50579 | 23.51320 | 36481 ft | 420 kts | 309° |
| 2026-04-30 18:47 | 37.52570 | 23.48635 | 36684 ft | 419 kts | 309° |
| 2026-04-30 18:48 | 37.54555 | 23.45955 | 36947 ft | 418 kts | 309° |
| 2026-04-30 18:48 | 37.56535 | 23.43281 | 37244 ft | 415 kts | 309° |
| 2026-04-30 18:48 | 37.58497 | 23.40627 | 37578 ft | 412 kts | 309° |
| 2026-04-30 18:48 | 37.60445 | 23.37991 | 37858 ft | 410 kts | 309° |
| 2026-04-30 18:49 | 37.62391 | 23.35357 | 37988 ft | 412 kts | 309° |
| 2026-04-30 18:49 | 37.66312 | 23.30036 | 38002 ft | 415 kts | 309° |
| 2026-04-30 18:50 | 37.70231 | 23.24711 | 38003 ft | 413 kts | 309° |
| 2026-04-30 18:50 | 37.74139 | 23.19394 | 37991 ft | 412 kts | 309° |
| 2026-04-30 18:51 | 37.78035 | 23.14084 | 37980 ft | 411 kts | 309° |
| 2026-04-30 18:51 | 37.81914 | 23.08787 | 38001 ft | 410 kts | 309° |
| 2026-04-30 18:52 | 37.85767 | 23.03519 | 37976 ft | 410 kts | 309° |
| 2026-04-30 18:52 | 37.89632 | 22.98224 | 37980 ft | 409 kts | 309° |
| 2026-04-30 18:53 | 37.93447 | 22.92889 | 37978 ft | 407 kts | 304° |
| 2026-04-30 18:53 | 37.96697 | 22.87055 | 37984 ft | 406 kts | 301° |
| 2026-04-30 18:54 | 37.99338 | 22.82146 | 37989 ft | 406 kts | 301° |
| 2026-04-30 18:54 | 38.02559 | 22.76249 | 37974 ft | 407 kts | 302° |
| 2026-04-30 18:55 | 38.05803 | 22.70344 | 37991 ft | 408 kts | 302° |
| 2026-04-30 18:55 | 38.10683 | 22.61444 | 37987 ft | 410 kts | 302° |
| 2026-04-30 18:56 | 38.15579 | 22.52491 | 37990 ft | 412 kts | 302° |
| 2026-04-30 18:57 | 38.20478 | 22.43507 | 38001 ft | 412 kts | 302° |
| 2026-04-30 18:57 | 38.23740 | 22.37511 | 37989 ft | 412 kts | 302° |
| 2026-04-30 18:58 | 38.28620 | 22.28521 | 37996 ft | 411 kts | 302° |
| 2026-04-30 18:59 | 38.33476 | 22.19553 | 38004 ft | 410 kts | 302° |
| 2026-04-30 19:00 | 38.39853 | 22.07747 | 38002 ft | 410 kts | 302° |
| 2026-04-30 19:01 | 38.46322 | 21.95724 | 38007 ft | 411 kts | 301° |
| 2026-04-30 19:02 | 38.51160 | 21.86703 | 38005 ft | 410 kts | 301° |
| 2026-04-30 19:03 | 38.57557 | 21.74723 | 38005 ft | 407 kts | 302° |
| 2026-04-30 19:04 | 38.63913 | 21.62760 | 38006 ft | 406 kts | 302° |
| 2026-04-30 19:05 | 38.70255 | 21.50781 | 38009 ft | 407 kts | 301° |
| 2026-04-30 19:06 | 38.76599 | 21.38740 | 38025 ft | 408 kts | 301° |
| 2026-04-30 19:06 | 38.81357 | 21.29674 | 38029 ft | 409 kts | 301° |
| 2026-04-30 19:07 | 38.86115 | 21.20585 | 38020 ft | 409 kts | 301° |
| 2026-04-30 19:08 | 38.92436 | 21.08468 | 38035 ft | 410 kts | 301° |
| 2026-04-30 19:09 | 38.97190 | 20.99327 | 38053 ft | 410 kts | 301° |
| 2026-04-30 19:09 | 39.00359 | 20.93220 | 38047 ft | 411 kts | 301° |
| 2026-04-30 19:10 | 39.06696 | 20.80979 | 38044 ft | 411 kts | 301° |
| 2026-04-30 19:11 | 39.11438 | 20.71789 | 38043 ft | 411 kts | 301° |
| 2026-04-30 19:12 | 39.14596 | 20.65651 | 38048 ft | 411 kts | 301° |
| 2026-04-30 19:12 | 39.17758 | 20.59496 | 38035 ft | 412 kts | 301° |
| 2026-04-30 19:13 | 39.24077 | 20.47158 | 38036 ft | 412 kts | 301° |
| 2026-04-30 19:14 | 39.27226 | 20.40997 | 38037 ft | 411 kts | 302° |
| 2026-04-30 19:14 | 39.30374 | 20.34847 | 38042 ft | 411 kts | 302° |
| 2026-04-30 19:15 | 39.33523 | 20.28686 | 38038 ft | 411 kts | 302° |
| 2026-04-30 19:15 | 39.38230 | 20.19449 | 38039 ft | 410 kts | 301° |
| 2026-04-30 19:16 | 39.41358 | 20.13299 | 38036 ft | 409 kts | 302° |
| 2026-04-30 19:17 | 39.46104 | 20.04207 | 38045 ft | 409 kts | 304° |
| 2026-04-30 19:17 | 39.51277 | 19.95364 | 38050 ft | 409 kts | 305° |
| 2026-04-30 19:18 | 39.56392 | 19.86591 | 38053 ft | 408 kts | 305° |
| 2026-04-30 19:19 | 39.59800 | 19.80691 | 38053 ft | 409 kts | 304° |
| 2026-04-30 19:19 | 39.64908 | 19.71812 | 38055 ft | 410 kts | 304° |
| 2026-04-30 19:20 | 39.68315 | 19.65875 | 38037 ft | 410 kts | 304° |
| 2026-04-30 19:21 | 39.73411 | 19.56977 | 38036 ft | 409 kts | 304° |
| 2026-04-30 19:22 | 39.79845 | 19.45706 | 38064 ft | 409 kts | 304° |
| 2026-04-30 19:23 | 39.89500 | 19.28717 | 38060 ft | 407 kts | 304° |
| 2026-04-30 19:24 | 39.94537 | 19.19818 | 38087 ft | 406 kts | 304° |
| 2026-04-30 19:25 | 40.02884 | 19.05014 | 38063 ft | 404 kts | 304° |
| 2026-04-30 19:26 | 40.08056 | 18.92184 | 38055 ft | 401 kts | 290° |
| 2026-04-30 19:27 | 40.11002 | 18.82025 | 38064 ft | 401 kts | 291° |
| 2026-04-30 19:28 | 40.13987 | 18.71801 | 38058 ft | 402 kts | 291° |
| 2026-04-30 19:29 | 40.17968 | 18.58149 | 38067 ft | 402 kts | 291° |
| 2026-04-30 19:30 | 40.21940 | 18.44458 | 38082 ft | 403 kts | 291° |
| 2026-04-30 19:31 | 40.25902 | 18.30726 | 38076 ft | 403 kts | 291° |
| 2026-04-30 19:31 | 40.28861 | 18.20424 | 38074 ft | 403 kts | 290° |
| 2026-04-30 19:32 | 40.30828 | 18.13554 | 38077 ft | 403 kts | 291° |
| 2026-04-30 19:32 | 40.32789 | 18.06684 | 38074 ft | 402 kts | 290° |
| 2026-04-30 19:33 | 40.34748 | 17.99805 | 38074 ft | 402 kts | 290° |
| 2026-04-30 19:33 | 40.36702 | 17.92928 | 38079 ft | 403 kts | 290° |
| 2026-04-30 19:34 | 40.38654 | 17.86035 | 38075 ft | 403 kts | 290° |
| 2026-04-30 19:35 | 40.41572 | 17.75697 | 38073 ft | 403 kts | 290° |
| 2026-04-30 19:35 | 40.43511 | 17.68804 | 38074 ft | 402 kts | 290° |
| 2026-04-30 19:36 | 40.45445 | 17.61913 | 38083 ft | 402 kts | 290° |
| 2026-04-30 19:36 | 40.48350 | 17.51527 | 38071 ft | 405 kts | 290° |
| 2026-04-30 19:37 | 40.50285 | 17.44582 | 38073 ft | 405 kts | 290° |
| 2026-04-30 19:37 | 40.52212 | 17.37652 | 38061 ft | 403 kts | 290° |
| 2026-04-30 19:38 | 40.54127 | 17.30741 | 38064 ft | 401 kts | 290° |
| 2026-04-30 19:38 | 40.56031 | 17.23852 | 38084 ft | 400 kts | 290° |
| 2026-04-30 19:39 | 40.57927 | 17.16974 | 38091 ft | 400 kts | 290° |
| 2026-04-30 19:39 | 40.59816 | 17.10103 | 38122 ft | 400 kts | 290° |
| 2026-04-30 19:40 | 40.61705 | 17.03215 | 38121 ft | 400 kts | 290° |
| 2026-04-30 19:40 | 40.63585 | 16.96339 | 38130 ft | 399 kts | 290° |
| 2026-04-30 19:41 | 40.65147 | 16.90616 | 38128 ft | 400 kts | 290° |
| 2026-04-30 19:41 | 40.67025 | 16.83712 | 38130 ft | 400 kts | 290° |
| 2026-04-30 19:42 | 40.68900 | 16.76799 | 38113 ft | 401 kts | 290° |
| 2026-04-30 19:42 | 40.70770 | 16.69887 | 38116 ft | 400 kts | 290° |
| 2026-04-30 19:43 | 40.72620 | 16.63033 | 38132 ft | 399 kts | 290° |
| 2026-04-30 19:44 | 40.75400 | 16.52698 | 38135 ft | 399 kts | 290° |
| 2026-04-30 19:44 | 40.77248 | 16.45805 | 38152 ft | 399 kts | 290° |
| 2026-04-30 19:45 | 40.79094 | 16.38896 | 38147 ft | 399 kts | 290° |
| 2026-04-30 19:45 | 40.80936 | 16.31985 | 38156 ft | 399 kts | 290° |
| 2026-04-30 19:46 | 40.82775 | 16.25063 | 38159 ft | 400 kts | 290° |
| 2026-04-30 19:46 | 40.84614 | 16.18125 | 38168 ft | 401 kts | 290° |
| 2026-04-30 19:47 | 40.86450 | 16.11177 | 38154 ft | 401 kts | 290° |
| 2026-04-30 19:47 | 40.88285 | 16.04212 | 38163 ft | 401 kts | 290° |
| 2026-04-30 19:48 | 40.90115 | 15.97249 | 38150 ft | 401 kts | 290° |
| 2026-04-30 19:48 | 40.91939 | 15.90285 | 38158 ft | 401 kts | 290° |
| 2026-04-30 19:49 | 40.93748 | 15.83362 | 38160 ft | 401 kts | 290° |
| 2026-04-30 19:49 | 40.96471 | 15.72897 | 38160 ft | 401 kts | 290° |
| 2026-04-30 19:50 | 40.98285 | 15.65907 | 38156 ft | 401 kts | 290° |
| 2026-04-30 19:50 | 41.00091 | 15.58922 | 38166 ft | 401 kts | 290° |
| 2026-04-30 19:51 | 41.01894 | 15.51932 | 38170 ft | 401 kts | 290° |
| 2026-04-30 19:51 | 41.03694 | 15.44934 | 38146 ft | 401 kts | 290° |
| 2026-04-30 19:52 | 41.05486 | 15.37934 | 38155 ft | 401 kts | 290° |
| 2026-04-30 19:52 | 41.07278 | 15.30932 | 38152 ft | 401 kts | 290° |
| 2026-04-30 19:53 | 41.09066 | 15.23927 | 38153 ft | 401 kts | 290° |
| 2026-04-30 19:53 | 41.10862 | 15.16928 | 38160 ft | 401 kts | 291° |
| 2026-04-30 19:54 | 41.13143 | 15.10198 | 38164 ft | 400 kts | 296° |
| 2026-04-30 19:54 | 41.15554 | 15.03541 | 38158 ft | 401 kts | 296° |
| 2026-04-30 19:55 | 41.17948 | 14.96868 | 38157 ft | 401 kts | 295° |
| 2026-04-30 19:55 | 41.20319 | 14.90173 | 38145 ft | 400 kts | 295° |
| 2026-04-30 19:56 | 41.22672 | 14.83485 | 38151 ft | 399 kts | 295° |
| 2026-04-30 19:56 | 41.25017 | 14.76794 | 38154 ft | 400 kts | 295° |
| 2026-04-30 19:57 | 41.27363 | 14.70087 | 37906 ft | 404 kts | 295° |
| 2026-04-30 19:57 | 41.28550 | 14.66688 | 37414 ft | 404 kts | 295° |
| 2026-04-30 19:57 | 41.29723 | 14.63324 | 36847 ft | 400 kts | 295° |
| 2026-04-30 19:58 | 41.30888 | 14.59976 | 36244 ft | 398 kts | 295° |
| 2026-04-30 19:58 | 41.32047 | 14.56647 | 35623 ft | 396 kts | 295° |
| 2026-04-30 19:58 | 41.33202 | 14.53323 | 34984 ft | 396 kts | 295° |
| 2026-04-30 19:58 | 41.34356 | 14.49998 | 34327 ft | 395 kts | 295° |
| 2026-04-30 19:59 | 41.35500 | 14.46698 | 33671 ft | 391 kts | 295° |
| 2026-04-30 19:59 | 41.36638 | 14.43411 | 32914 ft | 392 kts | 295° |
| 2026-04-30 19:59 | 41.38920 | 14.36811 | 31490 ft | 392 kts | 294° |
| 2026-04-30 20:00 | 41.40057 | 14.33513 | 30752 ft | 393 kts | 294° |
| 2026-04-30 20:00 | 41.41198 | 14.30205 | 29989 ft | 393 kts | 294° |
| 2026-04-30 20:00 | 41.41254 | 14.30042 | 29956 ft | 393 kts | 294° |
| 2026-04-30 20:01 | 41.43338 | 14.23984 | 28965 ft | 383 kts | 294° |
| 2026-04-30 20:01 | 41.44437 | 14.20783 | 28398 ft | 378 kts | 294° |
| 2026-04-30 20:01 | 41.45525 | 14.17610 | 27892 ft | 373 kts | 294° |
| 2026-04-30 20:02 | 41.47660 | 14.11376 | 26847 ft | 367 kts | 294° |
| 2026-04-30 20:02 | 41.48715 | 14.08292 | 26334 ft | 363 kts | 294° |
| 2026-04-30 20:03 | 41.50805 | 14.02170 | 25355 ft | 374 kts | 294° |
| 2026-04-30 20:03 | 41.51892 | 13.98979 | 24822 ft | 380 kts | 294° |
| 2026-04-30 20:03 | 41.52995 | 13.95738 | 24283 ft | 376 kts | 294° |
| 2026-04-30 20:03 | 41.54057 | 13.92613 | 23755 ft | 373 kts | 294° |
| 2026-04-30 20:04 | 41.55126 | 13.89466 | 23143 ft | 371 kts | 294° |
| 2026-04-30 20:04 | 41.56185 | 13.86344 | 22589 ft | 367 kts | 294° |
| 2026-04-30 20:04 | 41.57231 | 13.83244 | 22094 ft | 363 kts | 294° |
| 2026-04-30 20:05 | 41.59286 | 13.77170 | 21066 ft | 354 kts | 294° |
| 2026-04-30 20:05 | 41.60291 | 13.74189 | 20588 ft | 350 kts | 295° |
| 2026-04-30 20:05 | 41.62280 | 13.68305 | 19596 ft | 346 kts | 295° |
| 2026-04-30 20:06 | 41.63264 | 13.65385 | 19123 ft | 343 kts | 295° |
| 2026-04-30 20:06 | 41.64240 | 13.62483 | 18676 ft | 341 kts | 295° |
| 2026-04-30 20:06 | 41.65209 | 13.59595 | 18160 ft | 340 kts | 295° |
| 2026-04-30 20:06 | 41.66178 | 13.56709 | 17632 ft | 339 kts | 295° |
| 2026-04-30 20:07 | 41.67138 | 13.53844 | 17141 ft | 337 kts | 295° |
| 2026-04-30 20:07 | 41.68084 | 13.51021 | 16959 ft | 326 kts | 294° |
| 2026-04-30 20:07 | 41.69891 | 13.45618 | 16675 ft | 312 kts | 295° |
| 2026-04-30 20:08 | 41.70780 | 13.42958 | 16556 ft | 315 kts | 295° |
| 2026-04-30 20:08 | 41.71664 | 13.40308 | 16419 ft | 308 kts | 295° |
| 2026-04-30 20:08 | 41.72521 | 13.37737 | 16312 ft | 298 kts | 295° |
| 2026-04-30 20:08 | 41.73369 | 13.35249 | 16168 ft | 289 kts | 299° |
| 2026-04-30 20:09 | 41.74560 | 13.33120 | 15885 ft | 285 kts | 312° |
| 2026-04-30 20:09 | 41.75908 | 13.31191 | 15573 ft | 283 kts | 313° |
| 2026-04-30 20:09 | 41.78589 | 13.27381 | 14954 ft | 280 kts | 313° |
| 2026-04-30 20:10 | 41.81242 | 13.23576 | 14339 ft | 279 kts | 313° |
| 2026-04-30 20:10 | 41.82567 | 13.21671 | 14021 ft | 279 kts | 313° |
| 2026-04-30 20:10 | 41.83885 | 13.19764 | 13683 ft | 278 kts | 313° |
| 2026-04-30 20:11 | 41.86501 | 13.15969 | 13030 ft | 275 kts | 314° |
| 2026-04-30 20:11 | 41.87797 | 13.14088 | 12721 ft | 274 kts | 313° |
| 2026-04-30 20:11 | 41.89087 | 13.12211 | 12398 ft | 272 kts | 313° |
| 2026-04-30 20:12 | 41.91647 | 13.08486 | 11795 ft | 271 kts | 313° |
| 2026-04-30 20:12 | 41.92921 | 13.06631 | 11498 ft | 269 kts | 313° |
| 2026-04-30 20:12 | 41.94188 | 13.04783 | 11203 ft | 268 kts | 313° |
| 2026-04-30 20:13 | 41.95451 | 13.02940 | 10906 ft | 268 kts | 313° |
| 2026-04-30 20:13 | 41.96710 | 13.01103 | 10608 ft | 267 kts | 313° |
| 2026-04-30 20:13 | 41.97965 | 12.99271 | 10340 ft | 266 kts | 313° |
| 2026-04-30 20:13 | 41.99198 | 12.97469 | 10223 ft | 258 kts | 313° |
| 2026-04-30 20:14 | 42.00397 | 12.95715 | 10062 ft | 253 kts | 313° |
| 2026-04-30 20:14 | 42.01579 | 12.93985 | 9934 ft | 247 kts | 313° |
| 2026-04-30 20:14 | 42.02697 | 12.92275 | 9793 ft | 241 kts | 305° |
| 2026-04-30 20:14 | 42.03296 | 12.90219 | 9610 ft | 239 kts | 285° |
| 2026-04-30 20:15 | 42.03669 | 12.88048 | 9342 ft | 239 kts | 284° |
| 2026-04-30 20:15 | 42.04050 | 12.85869 | 9100 ft | 238 kts | 285° |
| 2026-04-30 20:15 | 42.04427 | 12.83729 | 8849 ft | 232 kts | 285° |
| 2026-04-30 20:15 | 42.04794 | 12.81650 | 8569 ft | 226 kts | 285° |
| 2026-04-30 20:16 | 42.05151 | 12.79629 | 8370 ft | 219 kts | 285° |
| 2026-04-30 20:16 | 42.05495 | 12.77669 | 8249 ft | 212 kts | 286° |
| 2026-04-30 20:16 | 42.05826 | 12.75781 | 8149 ft | 202 kts | 285° |
| 2026-04-30 20:16 | 42.06137 | 12.74000 | 8059 ft | 191 kts | 286° |
| 2026-04-30 20:17 | 42.06440 | 12.72275 | 7982 ft | 190 kts | 286° |
| 2026-04-30 20:17 | 42.06753 | 12.70503 | 7822 ft | 198 kts | 285° |
| 2026-04-30 20:17 | 42.07071 | 12.68692 | 7640 ft | 200 kts | 286° |
| 2026-04-30 20:17 | 42.07391 | 12.66865 | 7430 ft | 200 kts | 286° |
| 2026-04-30 20:18 | 42.07709 | 12.65046 | 7221 ft | 201 kts | 285° |
| 2026-04-30 20:18 | 42.08028 | 12.63217 | 7001 ft | 201 kts | 286° |
| 2026-04-30 20:18 | 42.08346 | 12.61396 | 6778 ft | 198 kts | 286° |
| 2026-04-30 20:18 | 42.08657 | 12.59609 | 6560 ft | 194 kts | 285° |
| 2026-04-30 20:19 | 42.08964 | 12.57844 | 6274 ft | 195 kts | 286° |
| 2026-04-30 20:19 | 42.09173 | 12.56638 | 6069 ft | 195 kts | 285° |
| 2026-04-30 20:19 | 42.09555 | 12.54298 | 5768 ft | 193 kts | 276° |
| 2026-04-30 20:19 | 42.09208 | 12.52591 | 5543 ft | 194 kts | 232° |
| 2026-04-30 20:20 | 42.08080 | 12.51577 | 5396 ft | 201 kts | 201° |
| 2026-04-30 20:20 | 42.06746 | 12.50916 | 5197 ft | 208 kts | 201° |
| 2026-04-30 20:20 | 42.05383 | 12.50247 | 4945 ft | 208 kts | 200° |
| 2026-04-30 20:20 | 42.04037 | 12.49586 | 4715 ft | 204 kts | 200° |
| 2026-04-30 20:21 | 42.02717 | 12.48939 | 4507 ft | 201 kts | 200° |
| 2026-04-30 20:21 | 42.01413 | 12.48297 | 4300 ft | 198 kts | 200° |
| 2026-04-30 20:21 | 42.00126 | 12.47665 | 4103 ft | 196 kts | 200° |
| 2026-04-30 20:21 | 41.98834 | 12.47055 | 3926 ft | 197 kts | 192° |
| 2026-04-30 20:22 | 41.97510 | 12.47228 | 3694 ft | 193 kts | 147° |
| 2026-04-30 20:22 | 41.96377 | 12.48186 | 3538 ft | 194 kts | 150° |
| 2026-04-30 20:22 | 41.95172 | 12.48980 | 3353 ft | 191 kts | 152° |
| 2026-04-30 20:22 | 41.94006 | 12.49770 | 3135 ft | 184 kts | 152° |
| 2026-04-30 20:23 | 41.92891 | 12.50539 | 2958 ft | 177 kts | 151° |
| 2026-04-30 20:23 | 41.91815 | 12.51282 | 2739 ft | 172 kts | 153° |
| 2026-04-30 20:23 | 41.90766 | 12.52006 | 2507 ft | 167 kts | 153° |
| 2026-04-30 20:23 | 41.89757 | 12.52702 | 2289 ft | 164 kts | 153° |
| 2026-04-30 20:24 | 41.88763 | 12.53389 | 2126 ft | 159 kts | 154° |
| 2026-04-30 20:24 | 41.87770 | 12.54073 | 1871 ft | 152 kts | 154° |
| 2026-04-30 20:24 | 41.86874 | 12.54693 | 1691 ft | 144 kts | 154° |
| 2026-04-30 20:24 | 41.85999 | 12.55297 | 1500 ft | 141 kts | 154° |
| 2026-04-30 20:25 | 41.84245 | 12.56507 | 1151 ft | 141 kts | 153° |
| 2026-04-30 20:25 | 41.83376 | 12.57108 | 1037 ft | 140 kts | 155° |
| 2026-04-30 20:26 | 41.81625 | 12.58329 | 628 ft | 139 kts | 156° |
| 2026-04-30 20:26 | 41.80191 | 12.59316 | 413 ft | 139 kts | 155° |
| 2026-04-30 20:26 | 41.79443 | 12.59825 | 411 ft | 56 kts | 152° |
| 2026-04-30 20:27 | 41.79227 | 12.59795 | 406 ft | 13 kts | 282° |
| 2026-04-30 20:27 | 41.79229 | 12.59624 | 403 ft | 9 kts | 243° |
| 2026-04-30 20:28 | 41.79214 | 12.59558 | 405 ft | 0 kts | 270° |
| 2026-04-30 20:29 | 41.79214 | 12.59548 | 405 ft | 0 kts | 270° |